Terminal Aerodrome Forecast
Issued by NWS Northern Indiana

Home | Current Version | Previous Version | Text Only | Print | Product List | Glossary Off
Versions: 1 2 3 4 5 6 7 8 9 10 11 12 13 14 15

000
FTUS43 KIWX 280500
TAFFWA
TAF
KFWA 280520Z 2806/2906 21015G24KT P6SM SCT120 OVC200
     FM281000 22014KT 6SM -SHRA VCTS BKN035CB OVC100
      TEMPO 2813/2816 4SM SHRA OVC025
     FM281700 25014G22KT P6SM SCT040
     FM290000 25008KT P6SM SCT040=

USA.gov is the U.S. government's official web portal to all federal, state and local government web resources and services.